sensor_id;sensor_type;location;lat;lon;timestamp;P1;durP1;ratioP1;P2;durP2;ratioP2
1404;SDS011;697;51.114;6.542;2023-12-20T00:01:57;8.37;;;5.40;;
1404;SDS011;697;51.114;6.542;2023-12-20T00:04:24;10.43;;;6.10;;
1404;SDS011;697;51.114;6.542;2023-12-20T00:06:51;8.17;;;5.63;;
1404;SDS011;697;51.114;6.542;2023-12-20T00:09:19;10.13;;;5.77;;
1404;SDS011;697;51.114;6.542;2023-12-20T00:11:45;8.77;;;5.63;;
1404;SDS011;697;51.114;6.542;2023-12-20T00:14:12;11.13;;;6.47;;
1404;SDS011;697;51.114;6.542;2023-12-20T00:16:39;9.83;;;6.60;;
1404;SDS011;697;51.114;6.542;2023-12-20T00:19:06;8.70;;;5.87;;
1404;SDS011;697;51.114;6.542;2023-12-20T00:21:32;7.63;;;6.07;;
1404;SDS011;697;51.114;6.542;2023-12-20T00:23:59;9.73;;;6.23;;
1404;SDS011;697;51.114;6.542;2023-12-20T00:26:27;9.20;;;6.30;;
1404;SDS011;697;51.114;6.542;2023-12-20T00:28:54;8.00;;;6.27;;
1404;SDS011;697;51.114;6.542;2023-12-20T00:31:21;7.47;;;6.63;;
1404;SDS011;697;51.114;6.542;2023-12-20T00:33:47;13.97;;;7.37;;
1404;SDS011;697;51.114;6.542;2023-12-20T00:36:14;10.70;;;8.20;;
1404;SDS011;697;51.114;6.542;2023-12-20T00:38:41;10.20;;;7.80;;
1404;SDS011;697;51.114;6.542;2023-12-20T00:41:08;12.77;;;9.13;;
1404;SDS011;697;51.114;6.542;2023-12-20T00:43:36;12.20;;;9.47;;
1404;SDS011;697;51.114;6.542;2023-12-20T00:46:03;15.47;;;10.07;;
1404;SDS011;697;51.114;6.542;2023-12-20T00:48:30;18.20;;;10.97;;
1404;SDS011;697;51.114;6.542;2023-12-20T00:50:56;14.97;;;10.67;;
1404;SDS011;697;51.114;6.542;2023-12-20T00:53:23;15.50;;;9.60;;
1404;SDS011;697;51.114;6.542;2023-12-20T00:55:50;15.17;;;10.00;;
1404;SDS011;697;51.114;6.542;2023-12-20T00:58:17;14.23;;;10.90;;
1404;SDS011;697;51.114;6.542;2023-12-20T01:00:45;14.10;;;10.53;;
1404;SDS011;697;51.114;6.542;2023-12-20T01:03:11;17.77;;;11.70;;
1404;SDS011;697;51.114;6.542;2023-12-20T01:05:39;20.33;;;10.67;;
1404;SDS011;697;51.114;6.542;2023-12-20T01:08:06;17.23;;;11.10;;
1404;SDS011;697;51.114;6.542;2023-12-20T01:10:33;18.70;;;11.67;;
1404;SDS011;697;51.114;6.542;2023-12-20T01:13:00;16.33;;;10.63;;
1404;SDS011;697;51.114;6.542;2023-12-20T01:15:27;15.20;;;10.27;;
1404;SDS011;697;51.114;6.542;2023-12-20T01:17:55;20.13;;;10.80;;
1404;SDS011;697;51.114;6.542;2023-12-20T01:20:24;14.80;;;8.70;;
1404;SDS011;697;51.114;6.542;2023-12-20T01:22:50;14.00;;;9.20;;
1404;SDS011;697;51.114;6.542;2023-12-20T01:25:17;11.47;;;8.00;;
1404;SDS011;697;51.114;6.542;2023-12-20T01:27:44;18.53;;;7.53;;
1404;SDS011;697;51.114;6.542;2023-12-20T01:30:11;9.97;;;7.33;;
1404;SDS011;697;51.114;6.542;2023-12-20T01:32:39;13.13;;;7.13;;
1404;SDS011;697;51.114;6.542;2023-12-20T01:35:07;15.80;;;7.23;;
1404;SDS011;697;51.114;6.542;2023-12-20T01:37:34;15.40;;;7.13;;
1404;SDS011;697;51.114;6.542;2023-12-20T01:40:00;12.47;;;7.70;;
1404;SDS011;697;51.114;6.542;2023-12-20T01:42:28;21.53;;;7.50;;
1404;SDS011;697;51.114;6.542;2023-12-20T01:44:55;18.13;;;8.43;;
1404;SDS011;697;51.114;6.542;2023-12-20T01:47:21;12.57;;;7.23;;
1404;SDS011;697;51.114;6.542;2023-12-20T01:49:48;10.53;;;5.77;;
1404;SDS011;697;51.114;6.542;2023-12-20T01:52:16;16.00;;;5.80;;
1404;SDS011;697;51.114;6.542;2023-12-20T01:54:45;14.83;;;6.77;;
1404;SDS011;697;51.114;6.542;2023-12-20T01:57:13;15.43;;;5.90;;
1404;SDS011;697;51.114;6.542;2023-12-20T01:59:41;9.70;;;6.80;;
1404;SDS011;697;51.114;6.542;2023-12-20T02:02:08;11.57;;;4.87;;
1404;SDS011;697;51.114;6.542;2023-12-20T02:04:37;14.67;;;5.27;;
1404;SDS011;697;51.114;6.542;2023-12-20T02:07:04;18.47;;;4.57;;
1404;SDS011;697;51.114;6.542;2023-12-20T02:09:34;19.43;;;5.70;;
1404;SDS011;697;51.114;6.542;2023-12-20T02:12:03;20.60;;;5.30;;
1404;SDS011;697;51.114;6.542;2023-12-20T02:14:30;11.40;;;4.40;;
1404;SDS011;697;51.114;6.542;2023-12-20T02:16:56;13.80;;;4.80;;
1404;SDS011;697;51.114;6.542;2023-12-20T02:19:23;12.30;;;3.80;;
1404;SDS011;697;51.114;6.542;2023-12-20T02:21:51;13.60;;;4.50;;
1404;SDS011;697;51.114;6.542;2023-12-20T02:24:31;12.90;;;4.17;;
1404;SDS011;697;51.114;6.542;2023-12-20T02:26:58;8.77;;;3.70;;
1404;SDS011;697;51.114;6.542;2023-12-20T02:29:25;14.67;;;3.60;;
1404;SDS011;697;51.114;6.542;2023-12-20T02:31:52;15.07;;;3.90;;
1404;SDS011;697;51.114;6.542;2023-12-20T02:34:19;8.90;;;2.97;;
1404;SDS011;697;51.114;6.542;2023-12-20T02:36:46;9.27;;;3.10;;
1404;SDS011;697;51.114;6.542;2023-12-20T02:39:14;12.77;;;3.77;;
1404;SDS011;697;51.114;6.542;2023-12-20T02:41:41;15.43;;;3.70;;
1404;SDS011;697;51.114;6.542;2023-12-20T02:44:07;12.60;;;3.20;;
1404;SDS011;697;51.114;6.542;2023-12-20T02:46:34;12.10;;;2.87;;
1404;SDS011;697;51.114;6.542;2023-12-20T02:49:01;13.30;;;3.90;;
1404;SDS011;697;51.114;6.542;2023-12-20T02:51:28;12.10;;;3.23;;
1404;SDS011;697;51.114;6.542;2023-12-20T02:53:54;11.67;;;2.50;;
1404;SDS011;697;51.114;6.542;2023-12-20T02:56:22;9.00;;;2.73;;
1404;SDS011;697;51.114;6.542;2023-12-20T02:58:49;15.20;;;2.97;;
1404;SDS011;697;51.114;6.542;2023-12-20T03:01:16;20.57;;;3.67;;
1404;SDS011;697;51.114;6.542;2023-12-20T03:03:43;14.50;;;3.40;;
1404;SDS011;697;51.114;6.542;2023-12-20T03:06:09;13.20;;;3.40;;
1404;SDS011;697;51.114;6.542;2023-12-20T03:08:36;15.63;;;3.50;;
1404;SDS011;697;51.114;6.542;2023-12-20T03:11:03;10.13;;;2.90;;
1404;SDS011;697;51.114;6.542;2023-12-20T03:13:32;10.63;;;3.20;;
1404;SDS011;697;51.114;6.542;2023-12-20T03:15:58;8.73;;;2.87;;
1404;SDS011;697;51.114;6.542;2023-12-20T03:18:25;10.90;;;3.77;;
1404;SDS011;697;51.114;6.542;2023-12-20T03:20:53;18.33;;;4.00;;
1404;SDS011;697;51.114;6.542;2023-12-20T03:23:20;9.47;;;3.27;;
1404;SDS011;697;51.114;6.542;2023-12-20T03:25:47;10.20;;;3.30;;
1404;SDS011;697;51.114;6.542;2023-12-20T03:28:14;10.63;;;3.17;;
1404;SDS011;697;51.114;6.542;2023-12-20T03:30:43;15.30;;;3.23;;
1404;SDS011;697;51.114;6.542;2023-12-20T03:33:09;14.90;;;5.70;;
1404;SDS011;697;51.114;6.542;2023-12-20T03:35:36;11.57;;;4.77;;
1404;SDS011;697;51.114;6.542;2023-12-20T03:38:03;10.83;;;3.70;;
1404;SDS011;697;51.114;6.542;2023-12-20T03:40:30;10.43;;;4.30;;
1404;SDS011;697;51.114;6.542;2023-12-20T03:42:56;15.33;;;3.67;;
1404;SDS011;697;51.114;6.542;2023-12-20T03:45:23;6.30;;;3.13;;
1404;SDS011;697;51.114;6.542;2023-12-20T03:47:51;13.07;;;3.87;;
1404;SDS011;697;51.114;6.542;2023-12-20T03:50:20;9.00;;;3.50;;
1404;SDS011;697;51.114;6.542;2023-12-20T03:52:47;12.90;;;3.60;;
1404;SDS011;697;51.114;6.542;2023-12-20T03:55:14;12.73;;;3.47;;
1404;SDS011;697;51.114;6.542;2023-12-20T03:57:41;11.50;;;4.13;;
1404;SDS011;697;51.114;6.542;2023-12-20T04:00:09;12.43;;;3.53;;
1404;SDS011;697;51.114;6.542;2023-12-20T04:02:36;17.53;;;4.13;;
1404;SDS011;697;51.114;6.542;2023-12-20T04:05:05;9.70;;;3.30;;
1404;SDS011;697;51.114;6.542;2023-12-20T04:07:32;11.33;;;4.30;;
1404;SDS011;697;51.114;6.542;2023-12-20T04:09:59;15.13;;;3.80;;
1404;SDS011;697;51.114;6.542;2023-12-20T04:12:26;13.50;;;3.97;;
1404;SDS011;697;51.114;6.542;2023-12-20T04:14:54;21.53;;;5.30;;
1404;SDS011;697;51.114;6.542;2023-12-20T04:17:20;23.43;;;5.70;;
1404;SDS011;697;51.114;6.542;2023-12-20T04:19:48;17.03;;;4.37;;
1404;SDS011;697;51.114;6.542;2023-12-20T04:22:16;14.07;;;5.13;;
1404;SDS011;697;51.114;6.542;2023-12-20T04:24:43;12.43;;;5.70;;
1404;SDS011;697;51.114;6.542;2023-12-20T04:27:10;17.03;;;5.70;;
1404;SDS011;697;51.114;6.542;2023-12-20T04:29:37;17.33;;;4.70;;
1404;SDS011;697;51.114;6.542;2023-12-20T04:32:04;11.50;;;4.63;;
1404;SDS011;697;51.114;6.542;2023-12-20T04:34:31;13.77;;;5.30;;
1404;SDS011;697;51.114;6.542;2023-12-20T04:36:58;15.40;;;4.90;;
1404;SDS011;697;51.114;6.542;2023-12-20T04:39:28;12.60;;;4.80;;
1404;SDS011;697;51.114;6.542;2023-12-20T04:41:54;19.03;;;5.37;;
1404;SDS011;697;51.114;6.542;2023-12-20T04:44:21;15.87;;;5.57;;
1404;SDS011;697;51.114;6.542;2023-12-20T04:46:48;15.83;;;5.77;;
1404;SDS011;697;51.114;6.542;2023-12-20T04:49:15;12.50;;;4.73;;
1404;SDS011;697;51.114;6.542;2023-12-20T04:51:42;16.47;;;5.23;;
1404;SDS011;697;51.114;6.542;2023-12-20T04:54:08;16.07;;;4.93;;
1404;SDS011;697;51.114;6.542;2023-12-20T04:56:37;12.33;;;4.90;;
1404;SDS011;697;51.114;6.542;2023-12-20T04:59:04;11.27;;;5.20;;
1404;SDS011;697;51.114;6.542;2023-12-20T05:01:31;16.40;;;5.83;;
1404;SDS011;697;51.114;6.542;2023-12-20T05:03:57;19.97;;;5.07;;
1404;SDS011;697;51.114;6.542;2023-12-20T05:06:24;12.53;;;5.50;;
1404;SDS011;697;51.114;6.542;2023-12-20T05:08:51;10.70;;;5.03;;
1404;SDS011;697;51.114;6.542;2023-12-20T05:11:18;16.37;;;5.30;;
1404;SDS011;697;51.114;6.542;2023-12-20T05:13:46;17.67;;;5.70;;
1404;SDS011;697;51.114;6.542;2023-12-20T05:16:12;25.83;;;5.43;;
1404;SDS011;697;51.114;6.542;2023-12-20T05:18:42;15.00;;;4.67;;
1404;SDS011;697;51.114;6.542;2023-12-20T05:21:09;16.00;;;5.70;;
1404;SDS011;697;51.114;6.542;2023-12-20T05:23:36;17.20;;;5.60;;
1404;SDS011;697;51.114;6.542;2023-12-20T05:26:02;13.33;;;5.10;;
1404;SDS011;697;51.114;6.542;2023-12-20T05:28:29;16.80;;;5.53;;
1404;SDS011;697;51.114;6.542;2023-12-20T05:30:57;16.90;;;5.77;;
1404;SDS011;697;51.114;6.542;2023-12-20T05:33:24;18.63;;;5.87;;
1404;SDS011;697;51.114;6.542;2023-12-20T05:35:51;16.77;;;4.70;;
1404;SDS011;697;51.114;6.542;2023-12-20T05:38:18;24.87;;;5.60;;
1404;SDS011;697;51.114;6.542;2023-12-20T05:40:45;17.90;;;6.40;;
1404;SDS011;697;51.114;6.542;2023-12-20T05:43:12;20.03;;;6.10;;
1404;SDS011;697;51.114;6.542;2023-12-20T05:45:39;18.13;;;5.40;;
1404;SDS011;697;51.114;6.542;2023-12-20T05:48:07;15.73;;;6.27;;
1404;SDS011;697;51.114;6.542;2023-12-20T05:50:34;16.37;;;7.57;;
1404;SDS011;697;51.114;6.542;2023-12-20T05:53:01;26.73;;;6.47;;
1404;SDS011;697;51.114;6.542;2023-12-20T05:55:28;13.17;;;6.10;;
1404;SDS011;697;51.114;6.542;2023-12-20T05:57:55;17.83;;;6.20;;
1404;SDS011;697;51.114;6.542;2023-12-20T06:00:22;23.97;;;6.43;;
1404;SDS011;697;51.114;6.542;2023-12-20T06:02:50;17.23;;;6.30;;
1404;SDS011;697;51.114;6.542;2023-12-20T06:05:18;10.60;;;5.67;;
1404;SDS011;697;51.114;6.542;2023-12-20T06:07:45;13.93;;;4.83;;
1404;SDS011;697;51.114;6.542;2023-12-20T06:10:13;17.10;;;5.47;;
1404;SDS011;697;51.114;6.542;2023-12-20T06:12:40;16.60;;;5.53;;
1404;SDS011;697;51.114;6.542;2023-12-20T06:15:07;15.40;;;5.77;;
1404;SDS011;697;51.114;6.542;2023-12-20T06:17:34;17.50;;;6.73;;
1404;SDS011;697;51.114;6.542;2023-12-20T06:20:01;15.83;;;4.80;;
1404;SDS011;697;51.114;6.542;2023-12-20T06:22:34;10.17;;;5.20;;
1404;SDS011;697;51.114;6.542;2023-12-20T06:25:00;9.27;;;5.00;;
1404;SDS011;697;51.114;6.542;2023-12-20T06:27:28;14.47;;;4.40;;
1404;SDS011;697;51.114;6.542;2023-12-20T06:29:55;17.20;;;7.77;;
1404;SDS011;697;51.114;6.542;2023-12-20T06:32:22;19.47;;;6.10;;
1404;SDS011;697;51.114;6.542;2023-12-20T06:34:49;20.83;;;5.67;;
1404;SDS011;697;51.114;6.542;2023-12-20T06:37:16;17.73;;;5.60;;
1404;SDS011;697;51.114;6.542;2023-12-20T06:39:44;12.47;;;5.90;;
1404;SDS011;697;51.114;6.542;2023-12-20T06:42:11;18.57;;;6.37;;
1404;SDS011;697;51.114;6.542;2023-12-20T06:44:38;20.00;;;5.53;;
1404;SDS011;697;51.114;6.542;2023-12-20T06:47:05;23.67;;;6.10;;
1404;SDS011;697;51.114;6.542;2023-12-20T06:49:32;17.10;;;5.70;;
1404;SDS011;697;51.114;6.542;2023-12-20T06:51:58;15.50;;;6.60;;
1404;SDS011;697;51.114;6.542;2023-12-20T06:54:25;17.70;;;6.00;;
1404;SDS011;697;51.114;6.542;2023-12-20T06:56:53;17.70;;;5.30;;
1404;SDS011;697;51.114;6.542;2023-12-20T06:59:20;19.23;;;5.50;;
1404;SDS011;697;51.114;6.542;2023-12-20T07:01:47;17.83;;;6.20;;
1404;SDS011;697;51.114;6.542;2023-12-20T07:04:15;15.13;;;6.50;;
1404;SDS011;697;51.114;6.542;2023-12-20T07:06:45;17.00;;;6.13;;
1404;SDS011;697;51.114;6.542;2023-12-20T07:09:12;17.73;;;5.80;;
1404;SDS011;697;51.114;6.542;2023-12-20T07:11:40;21.77;;;6.83;;
1404;SDS011;697;51.114;6.542;2023-12-20T07:14:08;24.00;;;6.83;;
1404;SDS011;697;51.114;6.542;2023-12-20T07:16:35;11.80;;;5.83;;
1404;SDS011;697;51.114;6.542;2023-12-20T07:19:02;20.50;;;7.07;;
1404;SDS011;697;51.114;6.542;2023-12-20T07:21:29;24.20;;;6.53;;
1404;SDS011;697;51.114;6.542;2023-12-20T07:23:55;14.30;;;6.80;;
1404;SDS011;697;51.114;6.542;2023-12-20T07:26:22;15.87;;;7.50;;
1404;SDS011;697;51.114;6.542;2023-12-20T07:28:49;14.60;;;5.97;;
1404;SDS011;697;51.114;6.542;2023-12-20T07:31:17;25.00;;;6.57;;
1404;SDS011;697;51.114;6.542;2023-12-20T07:33:44;12.07;;;6.33;;
1404;SDS011;697;51.114;6.542;2023-12-20T07:36:11;20.37;;;7.57;;
1404;SDS011;697;51.114;6.542;2023-12-20T07:38:38;16.00;;;6.27;;
1404;SDS011;697;51.114;6.542;2023-12-20T07:41:08;18.80;;;7.07;;
1404;SDS011;697;51.114;6.542;2023-12-20T07:43:35;16.33;;;6.73;;
1404;SDS011;697;51.114;6.542;2023-12-20T07:46:05;14.80;;;5.60;;
1404;SDS011;697;51.114;6.542;2023-12-20T07:48:33;17.13;;;6.27;;
1404;SDS011;697;51.114;6.542;2023-12-20T07:51:01;15.17;;;6.63;;
1404;SDS011;697;51.114;6.542;2023-12-20T07:53:28;16.40;;;7.43;;
1404;SDS011;697;51.114;6.542;2023-12-20T07:55:55;16.33;;;6.80;;
1404;SDS011;697;51.114;6.542;2023-12-20T07:58:22;23.07;;;6.63;;
1404;SDS011;697;51.114;6.542;2023-12-20T08:00:48;14.93;;;6.30;;
1404;SDS011;697;51.114;6.542;2023-12-20T08:03:15;18.70;;;6.03;;
1404;SDS011;697;51.114;6.542;2023-12-20T08:05:43;15.17;;;5.43;;
1404;SDS011;697;51.114;6.542;2023-12-20T08:08:10;21.17;;;6.30;;
1404;SDS011;697;51.114;6.542;2023-12-20T08:10:37;12.03;;;5.47;;
1404;SDS011;697;51.114;6.542;2023-12-20T08:13:04;15.17;;;6.50;;
1404;SDS011;697;51.114;6.542;2023-12-20T08:15:30;11.27;;;4.83;;
1404;SDS011;697;51.114;6.542;2023-12-20T08:17:57;15.07;;;6.90;;
1404;SDS011;697;51.114;6.542;2023-12-20T08:20:24;14.27;;;5.27;;
1404;SDS011;697;51.114;6.542;2023-12-20T08:22:52;22.17;;;7.00;;
1404;SDS011;697;51.114;6.542;2023-12-20T08:25:19;15.90;;;6.20;;
1404;SDS011;697;51.114;6.542;2023-12-20T08:27:47;19.90;;;5.80;;
1404;SDS011;697;51.114;6.542;2023-12-20T08:30:14;23.23;;;6.13;;
1404;SDS011;697;51.114;6.542;2023-12-20T08:32:42;20.30;;;6.40;;
1404;SDS011;697;51.114;6.542;2023-12-20T08:35:09;11.50;;;4.90;;
1404;SDS011;697;51.114;6.542;2023-12-20T08:37:36;12.10;;;5.27;;
1404;SDS011;697;51.114;6.542;2023-12-20T08:40:04;19.47;;;7.10;;
1404;SDS011;697;51.114;6.542;2023-12-20T08:42:32;13.93;;;6.00;;
1404;SDS011;697;51.114;6.542;2023-12-20T08:44:59;20.23;;;5.70;;
1404;SDS011;697;51.114;6.542;2023-12-20T08:47:26;14.40;;;5.40;;
1404;SDS011;697;51.114;6.542;2023-12-20T08:49:52;12.03;;;4.83;;
1404;SDS011;697;51.114;6.542;2023-12-20T08:52:21;18.50;;;5.03;;
1404;SDS011;697;51.114;6.542;2023-12-20T08:54:48;19.57;;;5.00;;
1404;SDS011;697;51.114;6.542;2023-12-20T08:57:18;9.67;;;4.77;;
1404;SDS011;697;51.114;6.542;2023-12-20T08:59:45;11.80;;;4.90;;
1404;SDS011;697;51.114;6.542;2023-12-20T09:02:13;16.20;;;5.23;;
1404;SDS011;697;51.114;6.542;2023-12-20T09:04:40;16.13;;;6.23;;
1404;SDS011;697;51.114;6.542;2023-12-20T09:07:07;12.43;;;4.47;;
1404;SDS011;697;51.114;6.542;2023-12-20T09:09:46;14.30;;;5.50;;
1404;SDS011;697;51.114;6.542;2023-12-20T09:12:13;16.73;;;3.77;;
1404;SDS011;697;51.114;6.542;2023-12-20T09:14:41;22.30;;;5.03;;
1404;SDS011;697;51.114;6.542;2023-12-20T09:17:08;11.17;;;4.43;;
1404;SDS011;697;51.114;6.542;2023-12-20T09:19:36;11.57;;;4.67;;
1404;SDS011;697;51.114;6.542;2023-12-20T09:22:03;12.80;;;4.27;;
1404;SDS011;697;51.114;6.542;2023-12-20T09:24:30;9.00;;;4.60;;
1404;SDS011;697;51.114;6.542;2023-12-20T09:26:57;13.93;;;5.00;;
1404;SDS011;697;51.114;6.542;2023-12-20T09:29:24;17.23;;;5.03;;
1404;SDS011;697;51.114;6.542;2023-12-20T09:31:52;16.57;;;5.20;;
1404;SDS011;697;51.114;6.542;2023-12-20T09:34:19;11.07;;;3.80;;
1404;SDS011;697;51.114;6.542;2023-12-20T09:36:46;11.93;;;4.70;;
1404;SDS011;697;51.114;6.542;2023-12-20T09:39:13;10.77;;;4.27;;
1404;SDS011;697;51.114;6.542;2023-12-20T09:41:41;14.53;;;4.00;;
1404;SDS011;697;51.114;6.542;2023-12-20T09:44:12;14.30;;;4.47;;
1404;SDS011;697;51.114;6.542;2023-12-20T09:46:43;10.10;;;3.80;;
1404;SDS011;697;51.114;6.542;2023-12-20T09:49:12;14.33;;;5.27;;
1404;SDS011;697;51.114;6.542;2023-12-20T09:51:40;12.93;;;3.80;;
1404;SDS011;697;51.114;6.542;2023-12-20T09:54:07;14.20;;;4.50;;
1404;SDS011;697;51.114;6.542;2023-12-20T09:56:35;7.03;;;3.50;;
1404;SDS011;697;51.114;6.542;2023-12-20T09:59:03;11.90;;;4.23;;
1404;SDS011;697;51.114;6.542;2023-12-20T10:01:30;9.80;;;3.40;;
1404;SDS011;697;51.114;6.542;2023-12-20T10:03:57;10.97;;;4.00;;
1404;SDS011;697;51.114;6.542;2023-12-20T10:06:29;17.77;;;4.07;;
1404;SDS011;697;51.114;6.542;2023-12-20T10:08:55;12.20;;;3.53;;
1404;SDS011;697;51.114;6.542;2023-12-20T10:11:22;12.47;;;4.23;;
1404;SDS011;697;51.114;6.542;2023-12-20T10:13:49;13.30;;;3.67;;
1404;SDS011;697;51.114;6.542;2023-12-20T10:16:16;15.07;;;3.97;;
1404;SDS011;697;51.114;6.542;2023-12-20T10:18:43;14.00;;;4.33;;
1404;SDS011;697;51.114;6.542;2023-12-20T10:21:11;14.30;;;3.63;;
1404;SDS011;697;51.114;6.542;2023-12-20T10:23:39;13.53;;;3.70;;
1404;SDS011;697;51.114;6.542;2023-12-20T10:26:06;13.53;;;3.90;;
1404;SDS011;697;51.114;6.542;2023-12-20T10:28:34;11.57;;;3.50;;
1404;SDS011;697;51.114;6.542;2023-12-20T10:31:02;13.23;;;3.83;;
1404;SDS011;697;51.114;6.542;2023-12-20T10:33:30;14.87;;;4.10;;
1404;SDS011;697;51.114;6.542;2023-12-20T10:35:57;6.67;;;3.00;;
1404;SDS011;697;51.114;6.542;2023-12-20T10:38:24;8.97;;;3.50;;
1404;SDS011;697;51.114;6.542;2023-12-20T10:40:54;10.73;;;4.13;;
1404;SDS011;697;51.114;6.542;2023-12-20T10:43:22;13.53;;;3.47;;
1404;SDS011;697;51.114;6.542;2023-12-20T10:45:51;16.20;;;4.03;;
1404;SDS011;697;51.114;6.542;2023-12-20T10:48:18;18.60;;;4.10;;
1404;SDS011;697;51.114;6.542;2023-12-20T10:50:46;14.27;;;4.07;;
1404;SDS011;697;51.114;6.542;2023-12-20T10:53:13;13.57;;;4.03;;
1404;SDS011;697;51.114;6.542;2023-12-20T10:55:41;11.50;;;4.20;;
1404;SDS011;697;51.114;6.542;2023-12-20T10:58:11;13.00;;;3.90;;
1404;SDS011;697;51.114;6.542;2023-12-20T11:00:40;11.67;;;3.70;;
1404;SDS011;697;51.114;6.542;2023-12-20T11:03:09;9.00;;;4.00;;
1404;SDS011;697;51.114;6.542;2023-12-20T11:05:40;10.07;;;3.40;;
1404;SDS011;697;51.114;6.542;2023-12-20T11:08:12;12.67;;;3.80;;
1404;SDS011;697;51.114;6.542;2023-12-20T11:10:48;9.23;;;3.40;;
1404;SDS011;697;51.114;6.542;2023-12-20T11:13:23;16.33;;;4.17;;
1404;SDS011;697;51.114;6.542;2023-12-20T11:15:56;9.37;;;3.27;;
1404;SDS011;697;51.114;6.542;2023-12-20T11:18:28;11.73;;;3.57;;
1404;SDS011;697;51.114;6.542;2023-12-20T11:20:55;11.00;;;4.60;;
1404;SDS011;697;51.114;6.542;2023-12-20T11:23:26;11.00;;;3.23;;
1404;SDS011;697;51.114;6.542;2023-12-20T11:25:53;11.40;;;3.97;;
1404;SDS011;697;51.114;6.542;2023-12-20T11:28:25;15.07;;;3.87;;
1404;SDS011;697;51.114;6.542;2023-12-20T11:30:53;10.17;;;3.40;;
1404;SDS011;697;51.114;6.542;2023-12-20T11:33:21;9.20;;;3.23;;
1404;SDS011;697;51.114;6.542;2023-12-20T11:35:49;12.10;;;3.80;;
1404;SDS011;697;51.114;6.542;2023-12-20T11:38:15;11.47;;;3.83;;
1404;SDS011;697;51.114;6.542;2023-12-20T11:40:43;11.40;;;3.87;;
1404;SDS011;697;51.114;6.542;2023-12-20T11:43:10;13.80;;;4.23;;
1404;SDS011;697;51.114;6.542;2023-12-20T11:45:38;14.30;;;3.73;;
1404;SDS011;697;51.114;6.542;2023-12-20T11:48:16;12.60;;;4.03;;
1404;SDS011;697;51.114;6.542;2023-12-20T11:50:43;16.93;;;5.20;;
1404;SDS011;697;51.114;6.542;2023-12-20T11:53:11;10.13;;;4.00;;
1404;SDS011;697;51.114;6.542;2023-12-20T11:55:38;12.57;;;4.00;;
1404;SDS011;697;51.114;6.542;2023-12-20T11:58:04;15.13;;;5.63;;
1404;SDS011;697;51.114;6.542;2023-12-20T12:00:31;7.33;;;3.90;;
1404;SDS011;697;51.114;6.542;2023-12-20T12:02:59;13.17;;;4.40;;
1404;SDS011;697;51.114;6.542;2023-12-20T12:05:30;12.17;;;4.80;;
1404;SDS011;697;51.114;6.542;2023-12-20T12:07:57;15.57;;;3.97;;
1404;SDS011;697;51.114;6.542;2023-12-20T12:10:24;12.83;;;4.30;;
1404;SDS011;697;51.114;6.542;2023-12-20T12:12:51;16.60;;;4.80;;
1404;SDS011;697;51.114;6.542;2023-12-20T12:15:19;13.93;;;4.30;;
1404;SDS011;697;51.114;6.542;2023-12-20T12:17:52;23.10;;;4.83;;
1404;SDS011;697;51.114;6.542;2023-12-20T12:20:21;13.70;;;4.47;;
1404;SDS011;697;51.114;6.542;2023-12-20T12:22:56;11.93;;;4.40;;
1404;SDS011;697;51.114;6.542;2023-12-20T12:25:24;19.53;;;5.20;;
1404;SDS011;697;51.114;6.542;2023-12-20T12:27:50;11.67;;;4.70;;
1404;SDS011;697;51.114;6.542;2023-12-20T12:30:17;10.73;;;4.70;;
1404;SDS011;697;51.114;6.542;2023-12-20T12:32:44;17.40;;;5.10;;
1404;SDS011;697;51.114;6.542;2023-12-20T12:35:11;10.03;;;4.33;;
1404;SDS011;697;51.114;6.542;2023-12-20T12:37:40;11.53;;;5.50;;
1404;SDS011;697;51.114;6.542;2023-12-20T12:40:09;18.13;;;4.80;;
1404;SDS011;697;51.114;6.542;2023-12-20T12:42:37;19.20;;;4.20;;
1404;SDS011;697;51.114;6.542;2023-12-20T12:45:04;11.23;;;4.20;;
1404;SDS011;697;51.114;6.542;2023-12-20T12:47:32;11.03;;;4.00;;
1404;SDS011;697;51.114;6.542;2023-12-20T12:49:59;12.47;;;4.53;;
1404;SDS011;697;51.114;6.542;2023-12-20T12:52:26;18.90;;;4.97;;
1404;SDS011;697;51.114;6.542;2023-12-20T12:54:55;9.37;;;4.57;;
1404;SDS011;697;51.114;6.542;2023-12-20T12:57:24;10.30;;;4.80;;
1404;SDS011;697;51.114;6.542;2023-12-20T12:59:51;16.53;;;4.83;;
1404;SDS011;697;51.114;6.542;2023-12-20T13:02:18;17.63;;;5.97;;
1404;SDS011;697;51.114;6.542;2023-12-20T13:04:45;16.53;;;5.10;;
1404;SDS011;697;51.114;6.542;2023-12-20T13:07:11;15.17;;;4.90;;
1404;SDS011;697;51.114;6.542;2023-12-20T13:09:39;13.80;;;5.87;;
1404;SDS011;697;51.114;6.542;2023-12-20T13:12:08;10.20;;;5.53;;
1404;SDS011;697;51.114;6.542;2023-12-20T13:14:35;12.87;;;6.30;;
1404;SDS011;697;51.114;6.542;2023-12-20T13:17:03;12.93;;;5.70;;
1404;SDS011;697;51.114;6.542;2023-12-20T13:19:30;14.00;;;5.33;;
1404;SDS011;697;51.114;6.542;2023-12-20T13:21:56;21.83;;;5.37;;
1404;SDS011;697;51.114;6.542;2023-12-20T13:24:24;13.13;;;5.03;;
1404;SDS011;697;51.114;6.542;2023-12-20T13:26:50;12.10;;;5.20;;
1404;SDS011;697;51.114;6.542;2023-12-20T13:29:19;11.40;;;5.00;;
1404;SDS011;697;51.114;6.542;2023-12-20T13:31:45;9.83;;;5.27;;
1404;SDS011;697;51.114;6.542;2023-12-20T13:34:12;12.03;;;5.00;;
1404;SDS011;697;51.114;6.542;2023-12-20T13:36:38;17.20;;;5.07;;
1404;SDS011;697;51.114;6.542;2023-12-20T13:39:05;12.30;;;4.43;;
1404;SDS011;697;51.114;6.542;2023-12-20T13:41:32;13.10;;;4.90;;
1404;SDS011;697;51.114;6.542;2023-12-20T13:43:59;9.80;;;5.20;;
1404;SDS011;697;51.114;6.542;2023-12-20T13:46:29;8.57;;;4.27;;
1404;SDS011;697;51.114;6.542;2023-12-20T13:48:56;12.20;;;5.00;;
1404;SDS011;697;51.114;6.542;2023-12-20T13:51:23;7.73;;;4.80;;
1404;SDS011;697;51.114;6.542;2023-12-20T13:53:49;13.10;;;4.90;;
1404;SDS011;697;51.114;6.542;2023-12-20T13:56:16;7.73;;;5.50;;
1404;SDS011;697;51.114;6.542;2023-12-20T13:58:45;10.03;;;5.20;;
1404;SDS011;697;51.114;6.542;2023-12-20T14:01:12;8.60;;;4.27;;
1404;SDS011;697;51.114;6.542;2023-12-20T14:03:40;13.43;;;4.97;;
1404;SDS011;697;51.114;6.542;2023-12-20T14:06:07;10.73;;;4.30;;
1404;SDS011;697;51.114;6.542;2023-12-20T14:08:34;16.50;;;5.10;;
1404;SDS011;697;51.114;6.542;2023-12-20T14:11:01;10.30;;;4.90;;
1404;SDS011;697;51.114;6.542;2023-12-20T14:13:27;9.17;;;4.77;;
1404;SDS011;697;51.114;6.542;2023-12-20T14:15:54;16.27;;;5.23;;
1404;SDS011;697;51.114;6.542;2023-12-20T14:18:21;8.63;;;4.57;;
1404;SDS011;697;51.114;6.542;2023-12-20T14:20:49;9.13;;;5.03;;
1404;SDS011;697;51.114;6.542;2023-12-20T14:23:16;11.50;;;5.60;;
1404;SDS011;697;51.114;6.542;2023-12-20T14:25:43;10.00;;;5.23;;
1404;SDS011;697;51.114;6.542;2023-12-20T14:28:10;11.30;;;5.70;;
1404;SDS011;697;51.114;6.542;2023-12-20T14:30:39;17.80;;;5.67;;
1404;SDS011;697;51.114;6.542;2023-12-20T14:33:06;11.67;;;5.00;;
1404;SDS011;697;51.114;6.542;2023-12-20T14:35:32;11.63;;;4.70;;
1404;SDS011;697;51.114;6.542;2023-12-20T14:38:02;12.30;;;4.93;;
1404;SDS011;697;51.114;6.542;2023-12-20T14:40:29;12.13;;;4.97;;
1404;SDS011;697;51.114;6.542;2023-12-20T14:42:55;13.37;;;5.30;;
1404;SDS011;697;51.114;6.542;2023-12-20T14:45:22;14.20;;;5.30;;
1404;SDS011;697;51.114;6.542;2023-12-20T14:47:49;8.87;;;4.27;;
1404;SDS011;697;51.114;6.542;2023-12-20T14:50:16;14.67;;;5.07;;
1404;SDS011;697;51.114;6.542;2023-12-20T14:52:43;9.87;;;5.73;;
1404;SDS011;697;51.114;6.542;2023-12-20T14:55:12;16.63;;;5.67;;
1404;SDS011;697;51.114;6.542;2023-12-20T14:57:39;16.00;;;5.00;;
1404;SDS011;697;51.114;6.542;2023-12-20T15:00:06;11.50;;;5.50;;
1404;SDS011;697;51.114;6.542;2023-12-20T15:02:33;15.77;;;6.20;;
1404;SDS011;697;51.114;6.542;2023-12-20T15:05:00;7.30;;;4.93;;
1404;SDS011;697;51.114;6.542;2023-12-20T15:07:27;10.30;;;4.67;;
1404;SDS011;697;51.114;6.542;2023-12-20T15:09:54;12.03;;;6.10;;
1404;SDS011;697;51.114;6.542;2023-12-20T15:12:22;14.57;;;6.37;;
1404;SDS011;697;51.114;6.542;2023-12-20T15:14:49;10.63;;;4.70;;
1404;SDS011;697;51.114;6.542;2023-12-20T15:17:16;18.20;;;5.77;;
1404;SDS011;697;51.114;6.542;2023-12-20T15:19:43;7.97;;;5.50;;